createdAt,value
2023-04-15T00:01:37.940Z,2.97
2023-04-15T00:04:06.891Z,2.90
2023-04-15T00:06:35.077Z,3.40
2023-04-15T00:09:02.775Z,3.83
2023-04-15T00:11:30.409Z,4.20
2023-04-15T00:13:58.558Z,5.10
2023-04-15T00:16:26.580Z,5.07
2023-04-15T00:18:54.113Z,5.77
2023-04-15T00:21:22.982Z,5.10
2023-04-15T00:23:53.645Z,5.80
2023-04-15T00:26:21.521Z,5.00
2023-04-15T00:28:48.992Z,5.03
2023-04-15T00:31:16.587Z,4.60
2023-04-15T00:33:44.578Z,3.93
2023-04-15T00:36:12.026Z,3.60
2023-04-15T00:38:40.826Z,3.50
2023-04-15T00:41:08.998Z,3.33
2023-04-15T00:43:36.496Z,2.77
2023-04-15T00:46:05.584Z,2.70
2023-04-15T00:48:33.339Z,2.70
2023-04-15T00:51:00.911Z,2.30
2023-04-15T00:53:28.334Z,2.30
2023-04-15T00:55:57.102Z,2.00
2023-04-15T00:58:24.933Z,2.13
2023-04-15T01:00:54.179Z,2.03
2023-04-15T01:03:21.984Z,2.03
2023-04-15T01:05:51.021Z,3.03
2023-04-15T01:08:18.623Z,2.80
2023-04-15T01:10:46.255Z,2.70
2023-04-15T01:13:15.155Z,3.20
2023-04-15T01:15:43.442Z,2.80
2023-04-15T01:18:10.987Z,2.60
2023-04-15T01:20:39.576Z,3.07
2023-04-15T01:23:07.334Z,3.40
2023-04-15T01:25:37.001Z,3.70
2023-04-15T01:28:05.056Z,3.43
2023-04-15T01:30:35.592Z,3.73
2023-04-15T01:33:03.202Z,3.90
2023-04-15T01:35:30.960Z,3.90
2023-04-15T01:38:04.555Z,4.23
2023-04-15T01:40:32.072Z,4.00
2023-04-15T01:43:01.110Z,3.67
2023-04-15T01:45:28.567Z,3.70
2023-04-15T01:47:56.195Z,3.77
2023-04-15T01:50:23.690Z,3.33
2023-04-15T01:52:51.310Z,3.20
2023-04-15T01:55:18.854Z,2.97
2023-04-15T01:57:46.436Z,3.20
2023-04-15T02:00:16.511Z,2.80
2023-04-15T02:02:44.723Z,2.27
2023-04-15T02:05:12.359Z,2.23
2023-04-15T02:07:39.868Z,2.17
2023-04-15T02:10:07.963Z,2.17
2023-04-15T02:12:35.874Z,2.10
2023-04-15T02:15:03.371Z,1.87
2023-04-15T02:17:35.778Z,1.70
2023-04-15T02:20:04.702Z,1.90
2023-04-15T02:22:32.323Z,1.80
2023-04-15T02:25:00.487Z,1.70
2023-04-15T02:27:28.944Z,1.93
2023-04-15T02:29:56.536Z,2.00
2023-04-15T02:32:24.426Z,2.10
2023-04-15T02:34:53.237Z,2.20
2023-04-15T02:37:20.811Z,2.00
2023-04-15T02:39:48.315Z,2.50
2023-04-15T02:42:15.812Z,2.97
2023-04-15T02:44:43.517Z,2.40
2023-04-15T02:47:11.710Z,2.17
2023-04-15T02:49:40.121Z,2.10
2023-04-15T02:52:09.909Z,2.10
2023-04-15T02:54:37.360Z,2.10
2023-04-15T02:57:06.629Z,2.33
2023-04-15T02:59:34.110Z,2.20
2023-04-15T03:02:01.671Z,2.30
2023-04-15T03:04:30.104Z,2.10
2023-04-15T03:06:57.585Z,1.90
2023-04-15T03:09:26.718Z,2.30
2023-04-15T03:11:54.743Z,2.23
2023-04-15T03:14:22.347Z,2.13
2023-04-15T03:16:50.492Z,2.30
2023-04-15T03:19:17.987Z,1.90
2023-04-15T03:21:45.584Z,2.03
2023-04-15T03:24:12.999Z,1.83
2023-04-15T03:26:41.756Z,2.10
2023-04-15T03:29:09.307Z,2.00
2023-04-15T03:31:36.836Z,2.20
2023-04-15T03:34:04.323Z,2.00
2023-04-15T03:36:33.011Z,1.90
2023-04-15T03:39:02.165Z,2.10
2023-04-15T03:41:29.959Z,2.03
2023-04-15T03:43:58.768Z,2.23
2023-04-15T03:46:26.700Z,1.87
2023-04-15T03:48:54.168Z,2.07
2023-04-15T03:51:22.203Z,1.83
2023-04-15T03:53:49.687Z,2.17
2023-04-15T03:56:17.230Z,2.00
2023-04-15T03:58:44.711Z,2.00
2023-04-15T04:01:13.478Z,2.07
2023-04-15T04:03:41.131Z,1.90
2023-04-15T04:06:08.919Z,2.00
2023-04-15T04:08:36.649Z,2.00
2023-04-15T04:11:04.458Z,1.70
2023-04-15T04:13:31.879Z,1.93
2023-04-15T04:15:59.387Z,1.90
2023-04-15T04:18:28.204Z,1.83
2023-04-15T04:20:56.259Z,1.73
2023-04-15T04:23:23.769Z,1.80
2023-04-15T04:25:51.306Z,1.70
2023-04-15T04:28:18.769Z,1.70
2023-04-15T04:30:46.302Z,1.50
2023-04-15T04:33:13.892Z,1.63
2023-04-15T04:35:44.120Z,1.73
2023-04-15T04:38:11.694Z,1.50
2023-04-15T04:40:39.212Z,1.73
2023-04-15T04:43:06.660Z,1.60
2023-04-15T04:45:34.115Z,1.60
2023-04-15T04:48:01.670Z,1.73
2023-04-15T04:50:29.136Z,1.73
2023-04-15T04:52:57.891Z,1.93
2023-04-15T04:55:25.678Z,2.20
2023-04-15T04:57:53.192Z,2.00
2023-04-15T05:00:21.131Z,1.80
2023-04-15T05:02:48.874Z,1.77
2023-04-15T05:05:16.499Z,1.83
2023-04-15T05:07:43.967Z,1.80
2023-04-15T05:10:14.621Z,1.80
2023-04-15T05:12:42.113Z,1.70
2023-04-15T05:15:10.708Z,1.90
2023-04-15T05:17:38.242Z,1.70
2023-04-15T05:20:06.511Z,1.70
2023-04-15T05:22:34.052Z,1.80
2023-04-15T05:25:01.526Z,1.70
2023-04-15T05:27:30.772Z,1.80
2023-04-15T05:29:58.258Z,1.90
2023-04-15T05:32:25.966Z,1.70
2023-04-15T05:34:53.461Z,1.70
2023-04-15T05:37:22.258Z,1.73
2023-04-15T05:39:49.793Z,1.60
2023-04-15T05:42:17.261Z,1.70
2023-04-15T05:44:46.115Z,1.70
2023-04-15T05:47:13.521Z,2.13
2023-04-15T05:49:40.950Z,3.40
2023-04-15T05:52:08.469Z,3.80
2023-04-15T05:54:36.550Z,3.40
2023-04-15T05:57:04.116Z,3.30
2023-04-15T05:59:31.651Z,3.10
2023-04-15T06:02:00.870Z,3.70
2023-04-15T06:04:28.867Z,3.27
2023-04-15T06:06:56.840Z,3.30
2023-04-15T06:09:24.312Z,3.50
2023-04-15T06:11:52.734Z,3.60
2023-04-15T06:14:20.145Z,3.37
2023-04-15T06:16:47.633Z,3.40
2023-04-15T06:19:16.441Z,3.23
2023-04-15T06:21:43.942Z,3.50
2023-04-15T06:24:12.292Z,3.77
2023-04-15T06:26:39.783Z,3.50
2023-04-15T06:29:07.228Z,3.60
2023-04-15T06:31:34.883Z,3.80
2023-04-15T06:34:02.410Z,3.80
2023-04-15T06:36:32.361Z,4.13
2023-04-15T06:38:59.986Z,3.73
2023-04-15T06:41:27.840Z,3.83
2023-04-15T06:43:55.291Z,3.97
2023-04-15T06:46:23.037Z,4.07
2023-04-15T06:48:50.542Z,3.67
2023-04-15T06:51:18.175Z,3.83
2023-04-15T06:53:46.959Z,3.67
2023-04-15T06:56:14.553Z,4.03
2023-04-15T06:58:42.015Z,3.67
2023-04-15T07:01:09.524Z,3.97
2023-04-15T07:03:37.016Z,3.87
2023-04-15T07:06:06.419Z,3.37
2023-04-15T07:08:34.427Z,3.60
2023-04-15T07:11:03.320Z,3.77
2023-04-15T07:13:32.673Z,3.93
2023-04-15T07:16:00.134Z,3.40
2023-04-15T07:18:27.640Z,3.63
2023-04-15T07:20:55.080Z,3.77
2023-04-15T07:23:22.561Z,3.67
2023-04-15T07:25:50.070Z,3.63
2023-04-15T07:28:18.999Z,3.93
2023-04-15T07:30:46.630Z,3.60
2023-04-15T07:33:14.655Z,3.50
2023-04-15T07:35:42.136Z,3.80
2023-04-15T07:38:09.567Z,3.53
2023-04-15T07:40:37.009Z,3.40
2023-04-15T07:43:04.537Z,3.90
2023-04-15T07:45:33.956Z,3.47
2023-04-15T07:48:01.869Z,3.67
2023-04-15T07:50:29.866Z,3.87
2023-04-15T07:52:57.783Z,3.33
2023-04-15T07:55:27.207Z,3.40
2023-04-15T07:57:55.690Z,3.23
2023-04-15T08:00:23.647Z,3.30
2023-04-15T08:02:53.680Z,4.00
2023-04-15T08:05:21.418Z,4.10
2023-04-15T08:07:48.987Z,3.70
2023-04-15T08:10:16.612Z,3.50
2023-04-15T08:12:44.175Z,4.33
2023-04-15T08:15:13.007Z,3.80
2023-04-15T08:17:40.527Z,3.70
2023-04-15T08:20:10.273Z,3.77
2023-04-15T08:22:37.753Z,3.67
2023-04-15T08:25:05.766Z,3.67
2023-04-15T08:27:33.255Z,3.47
2023-04-15T08:30:03.421Z,3.13
2023-04-15T08:32:32.472Z,3.03
2023-04-15T08:35:00.596Z,3.10
2023-04-15T08:37:29.437Z,2.83
2023-04-15T08:39:56.925Z,2.67
2023-04-15T08:42:28.726Z,2.73
2023-04-15T08:44:56.804Z,2.70
2023-04-15T08:47:30.889Z,2.47
2023-04-15T08:49:59.261Z,2.37
2023-04-15T08:52:29.059Z,2.20
2023-04-15T08:54:59.352Z,2.50
2023-04-15T08:57:28.431Z,2.20
2023-04-15T08:59:57.422Z,2.10
2023-04-15T09:02:26.192Z,2.30
2023-04-15T09:04:54.872Z,2.30
2023-04-15T09:07:22.365Z,2.20
2023-04-15T09:09:51.563Z,2.00
2023-04-15T09:12:19.048Z,1.80
2023-04-15T09:14:48.054Z,1.90
2023-04-15T09:17:20.513Z,2.00
2023-04-15T09:19:48.318Z,2.00
2023-04-15T09:22:16.734Z,2.07
2023-04-15T09:24:44.195Z,2.00
2023-04-15T09:27:17.745Z,1.90
2023-04-15T09:29:45.242Z,2.00
2023-04-15T09:32:14.815Z,1.80
2023-04-15T09:34:42.391Z,1.80
2023-04-15T09:37:10.775Z,1.90
2023-04-15T09:39:49.986Z,1.70
2023-04-15T09:42:24.140Z,1.80
2023-04-15T09:44:52.287Z,1.53
2023-04-15T09:47:30.091Z,1.70
2023-04-15T09:49:58.325Z,1.67
2023-04-15T09:52:25.941Z,1.60
2023-04-15T09:54:55.330Z,1.80
2023-04-15T09:57:24.669Z,1.70
2023-04-15T09:59:52.292Z,1.70
2023-04-15T10:02:21.351Z,1.50
2023-04-15T10:04:50.703Z,1.60
2023-04-15T10:07:20.535Z,1.67
2023-04-15T10:09:49.542Z,1.57
2023-04-15T10:12:18.233Z,1.60
2023-04-15T10:14:53.621Z,1.70
2023-04-15T10:17:23.901Z,1.50
2023-04-15T10:19:55.376Z,1.60
2023-04-15T10:22:23.861Z,1.70
2023-04-15T10:24:52.316Z,1.80
2023-04-15T10:27:22.138Z,1.70
2023-04-15T10:29:51.601Z,1.80
2023-04-15T10:32:21.640Z,1.57
2023-04-15T10:34:51.881Z,1.50
2023-04-15T10:37:23.034Z,1.70
2023-04-15T10:39:50.923Z,1.50
2023-04-15T10:42:20.096Z,1.60
2023-04-15T10:44:52.484Z,1.53
2023-04-15T10:47:22.010Z,1.50
2023-04-15T10:49:51.543Z,1.60
2023-04-15T10:52:23.882Z,1.53
2023-04-15T10:54:51.541Z,1.60
2023-04-15T10:57:23.954Z,1.60
2023-04-15T11:00:12.250Z,1.53
2023-04-15T11:02:42.023Z,1.53
2023-04-15T11:05:10.456Z,1.40
2023-04-15T11:07:40.068Z,1.40
2023-04-15T11:10:55.399Z,1.40
2023-04-15T11:13:27.045Z,1.20
2023-04-15T11:16:00.251Z,1.20
2023-04-15T11:18:30.385Z,1.20
2023-04-15T11:20:59.864Z,1.40
2023-04-15T11:23:35.614Z,1.43
2023-04-15T11:26:05.578Z,1.40
2023-04-15T11:28:33.978Z,1.40
2023-04-15T11:31:10.790Z,1.60
2023-04-15T11:33:40.671Z,1.47
2023-04-15T11:36:08.698Z,1.60
2023-04-15T11:38:37.816Z,1.57
2023-04-15T11:41:05.264Z,1.63
2023-04-15T11:43:35.383Z,1.70
2023-04-15T11:46:04.721Z,1.50
2023-04-15T11:48:35.063Z,1.50
2023-04-15T11:51:04.109Z,1.50
2023-04-15T11:53:40.849Z,1.70
2023-04-15T11:56:09.993Z,1.60
2023-04-15T11:58:39.118Z,2.03
2023-04-15T12:01:07.824Z,2.90
2023-04-15T12:03:42.289Z,2.87
2023-04-15T12:06:16.797Z,3.30
2023-04-15T12:09:01.775Z,2.90
2023-04-15T12:11:45.276Z,2.50
2023-04-15T12:14:18.593Z,2.30
2023-04-15T12:16:49.958Z,1.90
2023-04-15T12:19:25.791Z,2.00
2023-04-15T12:21:55.414Z,1.77
2023-04-15T12:24:23.899Z,1.70
2023-04-15T12:26:53.673Z,1.67
2023-04-15T12:29:25.773Z,1.57
2023-04-15T12:31:55.096Z,1.67
2023-04-15T12:34:32.032Z,1.70
2023-04-15T12:37:01.570Z,1.53
2023-04-15T12:39:31.070Z,1.60
2023-04-15T12:41:58.692Z,1.60
2023-04-15T12:44:27.246Z,1.40
2023-04-15T12:46:55.171Z,1.20
2023-04-15T12:49:24.217Z,1.27
2023-04-15T12:51:55.405Z,1.20
2023-04-15T12:54:23.036Z,1.10
2023-04-15T12:56:51.546Z,1.10
2023-04-15T12:59:19.471Z,1.17
2023-04-15T13:01:47.800Z,1.30
2023-04-15T13:04:15.564Z,1.20
2023-04-15T13:06:43.958Z,1.20
2023-04-15T13:09:12.730Z,1.20
2023-04-15T13:11:40.597Z,1.10
2023-04-15T13:14:09.458Z,1.13
2023-04-15T13:16:37.162Z,1.10
2023-04-15T13:19:05.489Z,1.00
2023-04-15T13:21:35.721Z,1.10
2023-04-15T13:24:04.391Z,1.10
2023-04-15T13:26:33.707Z,1.13
2023-04-15T13:29:02.324Z,1.00
2023-04-15T13:31:29.993Z,1.30
2023-04-15T13:33:57.714Z,1.10
2023-04-15T13:36:26.380Z,1.70
2023-04-15T13:38:53.856Z,1.00
2023-04-15T13:41:21.334Z,1.90
2023-04-15T13:43:50.338Z,1.60
2023-04-15T13:46:17.913Z,1.20
2023-04-15T13:48:45.473Z,1.20
2023-04-15T13:51:12.930Z,1.40
2023-04-15T13:53:40.426Z,1.10
2023-04-15T13:56:09.164Z,1.30
2023-04-15T13:58:37.388Z,1.50
2023-04-15T14:01:07.563Z,1.20
2023-04-15T14:03:36.823Z,1.20
2023-04-15T14:06:04.786Z,1.23
2023-04-15T14:08:32.371Z,1.27
2023-04-15T14:10:59.813Z,1.30
2023-04-15T14:13:27.285Z,1.47
2023-04-15T14:15:54.850Z,1.30
2023-04-15T14:18:23.646Z,1.40
2023-04-15T14:20:51.081Z,1.50
2023-04-15T14:23:18.809Z,1.67
2023-04-15T14:25:48.292Z,1.70
2023-04-15T14:28:16.069Z,1.60
2023-04-15T14:30:43.743Z,1.20
2023-04-15T14:33:11.309Z,1.30
2023-04-15T14:35:40.335Z,1.17
2023-04-15T14:38:10.496Z,1.03
2023-04-15T14:40:38.239Z,1.30
2023-04-15T14:43:06.009Z,1.00
2023-04-15T14:45:33.539Z,1.20
2023-04-15T14:48:01.640Z,1.00
2023-04-15T14:50:29.203Z,1.00
2023-04-15T14:52:58.119Z,1.00
2023-04-15T14:55:25.715Z,0.90
2023-04-15T14:57:53.225Z,1.00
2023-04-15T15:00:20.694Z,1.00
2023-04-15T15:02:48.516Z,1.00
2023-04-15T15:05:16.317Z,1.10
2023-04-15T15:07:43.945Z,1.40
2023-04-15T15:10:12.775Z,1.10
2023-04-15T15:12:40.329Z,1.10
2023-04-15T15:15:25.037Z,0.90
2023-04-15T15:17:53.154Z,0.90
2023-04-15T15:20:20.761Z,0.83
2023-04-15T15:22:48.175Z,1.20
2023-04-15T15:25:17.209Z,0.97
2023-04-15T15:27:44.929Z,0.97
2023-04-15T15:30:13.420Z,0.97
2023-04-15T15:32:41.917Z,1.30
2023-04-15T15:35:10.629Z,1.00
2023-04-15T15:37:38.412Z,1.20
2023-04-15T15:40:06.668Z,1.07
2023-04-15T15:42:35.907Z,0.77
2023-04-15T15:45:04.540Z,0.97
2023-04-15T15:47:32.122Z,1.10
2023-04-15T15:50:00.736Z,0.80
2023-04-15T15:52:28.583Z,0.90
2023-04-15T15:54:56.039Z,0.80
2023-04-15T15:57:23.637Z,0.70
2023-04-15T16:00:04.941Z,0.70
2023-04-15T16:03:04.298Z,0.70
2023-04-15T16:05:25.746Z,0.77
2023-04-15T16:07:53.166Z,0.80
2023-04-15T16:10:20.630Z,0.93
2023-04-15T16:12:48.097Z,0.73
2023-04-15T16:15:16.895Z,0.90
2023-04-15T16:17:44.658Z,0.83
2023-04-15T16:20:12.439Z,0.70
2023-04-15T16:22:39.991Z,0.70
2023-04-15T16:25:08.268Z,0.70
2023-04-15T16:27:46.452Z,0.90
2023-04-15T16:30:23.520Z,1.00
2023-04-15T16:32:51.026Z,0.90
2023-04-15T16:35:18.577Z,0.80
2023-04-15T16:37:46.046Z,0.93
2023-04-15T16:40:13.890Z,0.90
2023-04-15T16:42:43.478Z,0.73
2023-04-15T16:45:11.526Z,0.80
2023-04-15T16:47:40.448Z,0.90
2023-04-15T16:50:08.780Z,0.87
2023-04-15T16:52:36.982Z,0.80
2023-04-15T16:55:05.417Z,0.80
2023-04-15T16:58:00.468Z,1.10
2023-04-15T17:00:20.826Z,1.10
2023-04-15T17:02:49.711Z,1.00
2023-04-15T17:05:17.417Z,0.87
2023-04-15T17:07:44.921Z,0.90
2023-04-15T17:10:13.668Z,1.00
2023-04-15T17:12:41.502Z,0.73
2023-04-15T17:15:10.207Z,0.90
2023-04-15T17:17:37.734Z,0.80
2023-04-15T17:20:07.788Z,0.90
2023-04-15T17:22:35.251Z,0.80
2023-04-15T17:25:03.128Z,0.90
2023-04-15T17:27:32.166Z,0.70
2023-04-15T17:29:59.727Z,0.90
2023-04-15T17:32:31.471Z,1.03
2023-04-15T17:34:59.135Z,0.90
2023-04-15T17:37:28.031Z,1.03
2023-04-15T17:39:55.479Z,1.07
2023-04-15T17:42:23.152Z,0.80
2023-04-15T17:44:50.670Z,1.00
2023-04-15T17:47:18.175Z,1.10
2023-04-15T17:49:45.966Z,1.07
2023-04-15T17:52:13.435Z,1.20
2023-04-15T17:54:42.193Z,1.07
2023-04-15T17:57:10.247Z,0.90
2023-04-15T17:59:37.778Z,0.90
2023-04-15T18:02:05.923Z,0.90
2023-04-15T18:04:33.890Z,0.87
2023-04-15T18:07:01.585Z,1.00
2023-04-15T18:09:29.181Z,0.97
2023-04-15T18:11:58.347Z,0.87
2023-04-15T18:14:34.148Z,0.90
2023-04-15T18:17:02.842Z,1.00
2023-04-15T18:19:30.750Z,1.10
2023-04-15T18:21:59.790Z,1.10
2023-04-15T18:24:27.303Z,1.20
2023-04-15T18:26:54.802Z,1.20
2023-04-15T18:29:23.662Z,0.90
2023-04-15T18:31:51.212Z,1.00
2023-04-15T18:34:19.013Z,1.00
2023-04-15T18:36:47.146Z,1.00
2023-04-15T18:39:15.145Z,1.00
2023-04-15T18:41:42.736Z,1.00
2023-04-15T18:44:10.345Z,1.00
2023-04-15T18:46:39.368Z,1.10
2023-04-15T18:49:06.983Z,1.10
2023-04-15T18:51:34.688Z,0.97
2023-04-15T18:54:02.230Z,1.10
2023-04-15T18:56:29.699Z,1.00
2023-04-15T18:59:27.477Z,1.00
2023-04-15T19:01:46.144Z,1.20
2023-04-15T19:04:14.213Z,1.03
2023-04-15T19:06:42.102Z,1.00
2023-04-15T19:09:09.647Z,1.00
2023-04-15T19:11:37.345Z,1.13
2023-04-15T19:14:04.889Z,1.07
2023-04-15T19:16:32.944Z,1.10
2023-04-15T19:19:01.938Z,1.10
2023-04-15T19:21:31.511Z,0.90
2023-04-15T19:23:59.164Z,1.00
2023-04-15T19:26:26.629Z,1.00
2023-04-15T19:28:54.166Z,0.90
2023-04-15T19:31:21.652Z,0.90
2023-04-15T19:33:49.119Z,0.80
2023-04-15T19:36:18.697Z,0.97
2023-04-15T19:38:46.152Z,1.07
2023-04-15T19:41:13.578Z,1.10
2023-04-15T19:43:41.010Z,0.90
2023-04-15T19:46:08.886Z,1.00
2023-04-15T19:48:36.718Z,0.90
2023-04-15T19:51:04.263Z,1.07
2023-04-15T19:53:33.023Z,0.90
2023-04-15T19:56:00.555Z,0.90
2023-04-15T19:58:28.025Z,1.10
2023-04-15T20:00:55.715Z,1.10
2023-04-15T20:03:23.302Z,1.10
2023-04-15T20:05:51.068Z,1.10
2023-04-15T20:08:18.812Z,1.30
2023-04-15T20:10:47.619Z,1.07
2023-04-15T20:13:15.102Z,1.20
2023-04-15T20:15:42.632Z,1.30
2023-04-15T20:18:10.134Z,1.30
2023-04-15T20:20:41.500Z,1.20
2023-04-15T20:23:08.982Z,1.33
2023-04-15T20:25:36.422Z,1.37
2023-04-15T20:28:05.345Z,1.20
2023-04-15T20:30:32.796Z,1.37
2023-04-15T20:33:00.522Z,1.33
2023-04-15T20:35:30.741Z,1.30
2023-04-15T20:37:58.210Z,1.30
2023-04-15T20:40:25.753Z,1.20
2023-04-15T20:42:53.342Z,1.40
2023-04-15T20:45:22.156Z,1.40
2023-04-15T20:47:49.838Z,1.40
2023-04-15T20:50:17.351Z,1.43
2023-04-15T20:52:44.843Z,1.30
2023-04-15T20:55:12.303Z,1.37
2023-04-15T20:57:39.759Z,1.60
2023-04-15T21:00:09.263Z,1.60
2023-04-15T21:02:38.513Z,1.57
2023-04-15T21:05:06.814Z,1.63
2023-04-15T21:07:34.465Z,1.70
2023-04-15T21:10:01.978Z,1.70
2023-04-15T21:12:29.541Z,1.63
2023-04-15T21:14:57.103Z,1.80
2023-04-15T21:17:24.587Z,1.50
2023-04-15T21:19:53.392Z,1.50
2023-04-15T21:22:20.854Z,1.60
2023-04-15T21:24:48.295Z,1.73
2023-04-15T21:27:15.810Z,1.60
2023-04-15T21:29:43.321Z,1.40
2023-04-15T21:32:10.906Z,1.57
2023-04-15T21:34:38.463Z,1.60
2023-04-15T21:37:07.804Z,2.13
2023-04-15T21:39:35.359Z,1.90
2023-04-15T21:42:02.961Z,1.90
2023-04-15T21:44:30.584Z,1.67
2023-04-15T21:46:58.063Z,1.60
2023-04-15T21:49:25.645Z,1.80
2023-04-15T21:51:53.105Z,1.70
2023-04-15T21:54:22.123Z,1.80
2023-04-15T21:56:50.754Z,1.80
2023-04-15T21:59:18.208Z,2.20
2023-04-15T22:01:46.297Z,2.10
2023-04-15T22:04:13.990Z,1.73
2023-04-15T22:06:41.573Z,2.00
2023-04-15T22:09:10.586Z,2.17
2023-04-15T22:11:41.213Z,2.27
2023-04-15T22:14:09.039Z,1.97
2023-04-15T22:16:36.499Z,2.47
2023-04-15T22:19:04.294Z,2.40
2023-04-15T22:21:32.471Z,2.50
2023-04-15T22:24:36.857Z,2.27
2023-04-15T22:26:48.728Z,2.47
2023-04-15T22:29:16.244Z,2.47
2023-04-15T22:31:44.012Z,2.87
2023-04-15T22:34:11.545Z,2.97
2023-04-15T22:36:38.985Z,2.90
2023-04-15T22:39:06.613Z,3.00
2023-04-15T22:41:34.271Z,3.10
2023-04-15T22:44:03.040Z,2.90
2023-04-15T22:46:30.828Z,2.93
2023-04-15T22:48:58.349Z,3.10
2023-04-15T22:51:27.997Z,2.90
2023-04-15T22:53:56.063Z,2.90
2023-04-15T22:56:24.078Z,2.93
2023-04-15T22:58:51.790Z,3.20
2023-04-15T23:01:20.999Z,3.17
2023-04-15T23:03:57.705Z,3.20
2023-04-15T23:06:33.488Z,2.97
2023-04-15T23:09:00.952Z,3.57
2023-04-15T23:11:28.438Z,3.70
2023-04-15T23:13:56.614Z,3.37
2023-04-15T23:16:25.450Z,3.20
2023-04-15T23:18:52.963Z,3.47
2023-04-15T23:21:20.756Z,3.70
2023-04-15T23:23:48.374Z,3.57
2023-04-15T23:26:16.000Z,3.90
2023-04-15T23:28:43.464Z,3.23
2023-04-15T23:31:11.228Z,4.00
2023-04-15T23:33:40.209Z,3.70
2023-04-15T23:36:07.883Z,3.80
2023-04-15T23:38:35.496Z,3.80
2023-04-15T23:41:02.941Z,4.00
2023-04-15T23:43:30.520Z,3.73
2023-04-15T23:45:57.977Z,4.20
2023-04-15T23:48:25.444Z,4.27
2023-04-15T23:50:54.415Z,4.20
2023-04-15T23:53:21.885Z,4.10
2023-04-15T23:55:49.544Z,4.10
2023-04-15T23:58:17.164Z,4.13
